Terminal Aerodrome Forecast
Issued by NWS Twin Cities, MN

Home | Current Version | Previous Version | Graphics & Text | Print | Product List | Glossary On
Versions: 1 2 3 4 5 6 7 8 9 10 11 12 13 14 15 16 17 18 19 20 21 22 23 24 25 26
728
FTUS43 KMPX 222340
TAFMSP
TAF
KMSP 222340Z 2300/2406 01016G24KT 1/2SM SN BLSN VV008
      TEMPO 2301/2303 1/4SM +SN
     FM230400 36014G23KT 1SM -SN OVC015
     FM230600 36014G23KT P6SM OVC015
     FM230800 34013KT P6SM OVC020
     FM231800 31007KT P6SM SCT020
     FM232300 30005KT P6SM BKN150=

USA.gov is the U.S. government's official web portal to all federal, state and local government web resources and services.